Terminal Aerodrome Forecast
Issued by NWS Blacksburg, VA

Home | Current Version | Previous Version | Text Only | Print | Product List | Glossary On
Versions: 1 2 3 4 5 6 7 8 9 10 11 12 13 14 15 16
000
FTUS41 KRNK 281137
TAFDAN
TAF
KDAN 281137Z 2812/2912 00000KT 5SM BR SKC
     FM281300 23005KT P6SM BKN070
     FM281800 23005KT P6SM BKN045
      TEMPO 2821/2823 5SM TSRA OVC035CB=

USA.gov is the U.S. government's official web portal to all federal, state and local government web resources and services.